sensor_id;sensor_type;location;lat;lon;timestamp;P1;durP1;ratioP1;P2;durP2;ratioP2
84371;SDS011;74561;50.380;7.626;2024-03-07T00:02:08;27.92;;;11.00;;
84371;SDS011;74561;50.380;7.626;2024-03-07T00:04:34;31.00;;;11.85;;
84371;SDS011;74561;50.380;7.626;2024-03-07T00:07:01;30.92;;;11.23;;
84371;SDS011;74561;50.380;7.626;2024-03-07T00:09:35;28.98;;;12.65;;
84371;SDS011;74561;50.380;7.626;2024-03-07T00:12:03;31.67;;;12.68;;
84371;SDS011;74561;50.380;7.626;2024-03-07T00:14:31;33.85;;;12.82;;
84371;SDS011;74561;50.380;7.626;2024-03-07T00:16:57;30.40;;;12.25;;
84371;SDS011;74561;50.380;7.626;2024-03-07T00:19:24;29.60;;;11.00;;
84371;SDS011;74561;50.380;7.626;2024-03-07T00:22:01;31.50;;;11.63;;
84371;SDS011;74561;50.380;7.626;2024-03-07T00:24:26;32.88;;;12.82;;
84371;SDS011;74561;50.380;7.626;2024-03-07T00:26:55;31.02;;;13.23;;
84371;SDS011;74561;50.380;7.626;2024-03-07T00:29:25;25.95;;;10.95;;
84371;SDS011;74561;50.380;7.626;2024-03-07T00:45:33;31.35;;;12.00;;
84371;SDS011;74561;50.380;7.626;2024-03-07T00:48:00;35.43;;;12.83;;
84371;SDS011;74561;50.380;7.626;2024-03-07T01:02:48;29.73;;;12.25;;
84371;SDS011;74561;50.380;7.626;2024-03-07T01:05:13;28.55;;;12.43;;
84371;SDS011;74561;50.380;7.626;2024-03-07T01:07:39;29.92;;;12.10;;
84371;SDS011;74561;50.380;7.626;2024-03-07T01:10:06;37.85;;;13.52;;
84371;SDS011;74561;50.380;7.626;2024-03-07T01:12:34;31.20;;;12.55;;
84371;SDS011;74561;50.380;7.626;2024-03-07T01:14:59;34.37;;;12.67;;
84371;SDS011;74561;50.380;7.626;2024-03-07T01:25:11;33.03;;;13.65;;
84371;SDS011;74561;50.380;7.626;2024-03-07T01:27:37;27.60;;;12.07;;
84371;SDS011;74561;50.380;7.626;2024-03-07T01:30:27;29.05;;;11.98;;
84371;SDS011;74561;50.380;7.626;2024-03-07T01:35:48;29.52;;;11.98;;
84371;SDS011;74561;50.380;7.626;2024-03-07T01:38:46;30.38;;;11.27;;
84371;SDS011;74561;50.380;7.626;2024-03-07T01:41:30;28.95;;;12.25;;
84371;SDS011;74561;50.380;7.626;2024-03-07T01:46:42;31.80;;;13.23;;
84371;SDS011;74561;50.380;7.626;2024-03-07T01:49:09;31.05;;;12.50;;
84371;SDS011;74561;50.380;7.626;2024-03-07T01:51:35;30.10;;;12.68;;
84371;SDS011;74561;50.380;7.626;2024-03-07T01:54:01;31.60;;;12.07;;
84371;SDS011;74561;50.380;7.626;2024-03-07T01:56:29;30.58;;;12.40;;
84371;SDS011;74561;50.380;7.626;2024-03-07T01:59:48;29.92;;;11.95;;
84371;SDS011;74561;50.380;7.626;2024-03-07T02:06:43;30.65;;;11.88;;
84371;SDS011;74561;50.380;7.626;2024-03-07T02:09:40;28.00;;;11.35;;
84371;SDS011;74561;50.380;7.626;2024-03-07T02:13:26;24.45;;;9.95;;
84371;SDS011;74561;50.380;7.626;2024-03-07T02:16:08;27.77;;;11.05;;
84371;SDS011;74561;50.380;7.626;2024-03-07T02:19:28;27.50;;;12.15;;
84371;SDS011;74561;50.380;7.626;2024-03-07T02:21:54;28.48;;;11.82;;
84371;SDS011;74561;50.380;7.626;2024-03-07T02:24:36;28.27;;;11.70;;
84371;SDS011;74561;50.380;7.626;2024-03-07T02:27:03;29.33;;;12.50;;
84371;SDS011;74561;50.380;7.626;2024-03-07T02:30:23;26.60;;;11.00;;
84371;SDS011;74561;50.380;7.626;2024-03-07T02:33:33;27.40;;;11.52;;
84371;SDS011;74561;50.380;7.626;2024-03-07T02:36:40;31.40;;;12.13;;
84371;SDS011;74561;50.380;7.626;2024-03-07T02:39:56;26.17;;;11.88;;
84371;SDS011;74561;50.380;7.626;2024-03-07T02:42:48;31.20;;;12.48;;
84371;SDS011;74561;50.380;7.626;2024-03-07T02:49:57;29.60;;;11.68;;
84371;SDS011;74561;50.380;7.626;2024-03-07T02:52:57;23.20;;;10.73;;
84371;SDS011;74561;50.380;7.626;2024-03-07T03:00:01;25.67;;;11.15;;
84371;SDS011;74561;50.380;7.626;2024-03-07T03:03:39;26.42;;;10.32;;
84371;SDS011;74561;50.380;7.626;2024-03-07T03:06:53;29.15;;;12.00;;
84371;SDS011;74561;50.380;7.626;2024-03-07T03:13:51;29.98;;;13.00;;
84371;SDS011;74561;50.380;7.626;2024-03-07T03:16:44;31.80;;;15.07;;
84371;SDS011;74561;50.380;7.626;2024-03-07T03:20:17;31.27;;;13.73;;
84371;SDS011;74561;50.380;7.626;2024-03-07T03:23:13;32.33;;;14.43;;
84371;SDS011;74561;50.380;7.626;2024-03-07T03:26:26;29.40;;;13.55;;
84371;SDS011;74561;50.380;7.626;2024-03-07T03:29:13;32.10;;;14.93;;
84371;SDS011;74561;50.380;7.626;2024-03-07T03:35:35;31.50;;;13.80;;
84371;SDS011;74561;50.380;7.626;2024-03-07T03:38:48;32.75;;;13.55;;
84371;SDS011;74561;50.380;7.626;2024-03-07T03:42:04;29.48;;;13.77;;
84371;SDS011;74561;50.380;7.626;2024-03-07T03:45:21;29.63;;;13.90;;
84371;SDS011;74561;50.380;7.626;2024-03-07T03:48:37;31.85;;;13.68;;
84371;SDS011;74561;50.380;7.626;2024-03-07T03:51:08;30.95;;;13.23;;
84371;SDS011;74561;50.380;7.626;2024-03-07T03:53:41;32.13;;;14.38;;
84371;SDS011;74561;50.380;7.626;2024-03-07T03:56:09;33.67;;;15.18;;
84371;SDS011;74561;50.380;7.626;2024-03-07T03:59:00;30.15;;;14.13;;
84371;SDS011;74561;50.380;7.626;2024-03-07T04:01:29;33.55;;;13.75;;
84371;SDS011;74561;50.380;7.626;2024-03-07T04:03:56;33.20;;;13.95;;
84371;SDS011;74561;50.380;7.626;2024-03-07T04:08:52;27.75;;;12.23;;
84371;SDS011;74561;50.380;7.626;2024-03-07T04:11:20;32.20;;;13.65;;
84371;SDS011;74561;50.380;7.626;2024-03-07T04:13:47;28.67;;;13.55;;
84371;SDS011;74561;50.380;7.626;2024-03-07T04:16:12;29.80;;;13.37;;
84371;SDS011;74561;50.380;7.626;2024-03-07T04:18:41;33.92;;;15.20;;
84371;SDS011;74561;50.380;7.626;2024-03-07T04:21:06;31.50;;;14.63;;
84371;SDS011;74561;50.380;7.626;2024-03-07T04:23:34;31.52;;;14.63;;
84371;SDS011;74561;50.380;7.626;2024-03-07T04:25:59;30.15;;;13.43;;
84371;SDS011;74561;50.380;7.626;2024-03-07T04:28:25;32.77;;;14.47;;
84371;SDS011;74561;50.380;7.626;2024-03-07T04:30:50;33.95;;;14.02;;
84371;SDS011;74561;50.380;7.626;2024-03-07T04:33:18;32.95;;;14.82;;
84371;SDS011;74561;50.380;7.626;2024-03-07T04:35:44;32.38;;;14.05;;
84371;SDS011;74561;50.380;7.626;2024-03-07T04:38:10;30.23;;;14.52;;
84371;SDS011;74561;50.380;7.626;2024-03-07T04:40:39;29.88;;;13.70;;
84371;SDS011;74561;50.380;7.626;2024-03-07T04:48:11;39.55;;;15.18;;
84371;SDS011;74561;50.380;7.626;2024-03-07T04:50:36;33.87;;;14.60;;
84371;SDS011;74561;50.380;7.626;2024-03-07T04:53:01;32.60;;;14.57;;
84371;SDS011;74561;50.380;7.626;2024-03-07T04:55:27;36.55;;;13.82;;
84371;SDS011;74561;50.380;7.626;2024-03-07T04:57:52;35.90;;;14.93;;
84371;SDS011;74561;50.380;7.626;2024-03-07T05:00:17;36.37;;;13.90;;
84371;SDS011;74561;50.380;7.626;2024-03-07T05:02:45;34.20;;;13.70;;
84371;SDS011;74561;50.380;7.626;2024-03-07T05:05:11;33.00;;;14.82;;
84371;SDS011;74561;50.380;7.626;2024-03-07T05:07:38;38.40;;;15.93;;
84371;SDS011;74561;50.380;7.626;2024-03-07T05:23:09;34.80;;;15.45;;
84371;SDS011;74561;50.380;7.626;2024-03-07T05:39:02;34.40;;;15.65;;
84371;SDS011;74561;50.380;7.626;2024-03-07T05:50:02;35.30;;;14.02;;
84371;SDS011;74561;50.380;7.626;2024-03-07T05:56:36;32.97;;;15.23;;
84371;SDS011;74561;50.380;7.626;2024-03-07T07:05:54;30.42;;;13.82;;
84371;SDS011;74561;50.380;7.626;2024-03-07T07:13:16;32.40;;;14.30;;
84371;SDS011;74561;50.380;7.626;2024-03-07T07:30:40;24.38;;;12.55;;
84371;SDS011;74561;50.380;7.626;2024-03-07T07:33:06;25.98;;;13.10;;
84371;SDS011;74561;50.380;7.626;2024-03-07T07:35:31;22.77;;;12.55;;
84371;SDS011;74561;50.380;7.626;2024-03-07T07:37:57;25.38;;;12.88;;
84371;SDS011;74561;50.380;7.626;2024-03-07T07:40:24;27.23;;;12.98;;
84371;SDS011;74561;50.380;7.626;2024-03-07T07:42:52;25.58;;;12.70;;
84371;SDS011;74561;50.380;7.626;2024-03-07T07:45:18;23.08;;;13.57;;
84371;SDS011;74561;50.380;7.626;2024-03-07T07:47:46;25.42;;;12.63;;
84371;SDS011;74561;50.380;7.626;2024-03-07T07:50:15;22.92;;;11.90;;
84371;SDS011;74561;50.380;7.626;2024-03-07T07:52:45;26.42;;;12.65;;
84371;SDS011;74561;50.380;7.626;2024-03-07T07:55:13;25.70;;;12.48;;
84371;SDS011;74561;50.380;7.626;2024-03-07T07:57:51;25.15;;;12.70;;
84371;SDS011;74561;50.380;7.626;2024-03-07T08:00:21;25.80;;;13.23;;
84371;SDS011;74561;50.380;7.626;2024-03-07T08:02:58;23.30;;;12.80;;
84371;SDS011;74561;50.380;7.626;2024-03-07T08:05:26;36.17;;;14.70;;
84371;SDS011;74561;50.380;7.626;2024-03-07T08:07:53;27.50;;;13.10;;
84371;SDS011;74561;50.380;7.626;2024-03-07T08:10:20;22.98;;;11.43;;
84371;SDS011;74561;50.380;7.626;2024-03-07T08:12:48;25.05;;;12.82;;
84371;SDS011;74561;50.380;7.626;2024-03-07T08:34:37;22.35;;;11.32;;
84371;SDS011;74561;50.380;7.626;2024-03-07T08:37:05;22.97;;;9.93;;
84371;SDS011;74561;50.380;7.626;2024-03-07T08:39:36;22.70;;;11.63;;
84371;SDS011;74561;50.380;7.626;2024-03-07T08:42:18;21.77;;;11.82;;
84371;SDS011;74561;50.380;7.626;2024-03-07T08:44:44;23.25;;;11.75;;
84371;SDS011;74561;50.380;7.626;2024-03-07T08:47:09;21.27;;;10.80;;
84371;SDS011;74561;50.380;7.626;2024-03-07T08:49:35;21.53;;;11.17;;
84371;SDS011;74561;50.380;7.626;2024-03-07T08:52:00;21.63;;;11.82;;
84371;SDS011;74561;50.380;7.626;2024-03-07T08:54:26;22.88;;;11.10;;
84371;SDS011;74561;50.380;7.626;2024-03-07T08:56:51;18.60;;;10.70;;
84371;SDS011;74561;50.380;7.626;2024-03-07T08:59:20;21.27;;;11.70;;
84371;SDS011;74561;50.380;7.626;2024-03-07T09:02:14;20.85;;;11.48;;
84371;SDS011;74561;50.380;7.626;2024-03-07T09:04:41;21.38;;;11.40;;
84371;SDS011;74561;50.380;7.626;2024-03-07T09:07:19;20.50;;;11.10;;
84371;SDS011;74561;50.380;7.626;2024-03-07T09:09:45;20.92;;;10.65;;
84371;SDS011;74561;50.380;7.626;2024-03-07T09:12:20;18.45;;;10.55;;
84371;SDS011;74561;50.380;7.626;2024-03-07T09:15:30;19.02;;;10.95;;
84371;SDS011;74561;50.380;7.626;2024-03-07T09:18:07;20.13;;;10.75;;
84371;SDS011;74561;50.380;7.626;2024-03-07T09:20:33;20.52;;;10.75;;
84371;SDS011;74561;50.380;7.626;2024-03-07T09:23:04;19.13;;;9.90;;
84371;SDS011;74561;50.380;7.626;2024-03-07T09:29:20;20.08;;;10.93;;
84371;SDS011;74561;50.380;7.626;2024-03-07T09:31:51;20.30;;;10.63;;
84371;SDS011;74561;50.380;7.626;2024-03-07T09:34:26;18.08;;;10.23;;
84371;SDS011;74561;50.380;7.626;2024-03-07T09:40:54;18.52;;;10.60;;
84371;SDS011;74561;50.380;7.626;2024-03-07T09:46:26;19.05;;;10.27;;
84371;SDS011;74561;50.380;7.626;2024-03-07T09:48:59;19.98;;;10.68;;
84371;SDS011;74561;50.380;7.626;2024-03-07T09:51:25;18.63;;;10.13;;
84371;SDS011;74561;50.380;7.626;2024-03-07T09:53:54;20.40;;;9.65;;
84371;SDS011;74561;50.380;7.626;2024-03-07T09:56:23;20.83;;;10.68;;
84371;SDS011;74561;50.380;7.626;2024-03-07T10:30:23;22.85;;;11.85;;
84371;SDS011;74561;50.380;7.626;2024-03-07T11:00:25;22.98;;;13.13;;
84371;SDS011;74561;50.380;7.626;2024-03-07T11:03:14;22.38;;;12.00;;
84371;SDS011;74561;50.380;7.626;2024-03-07T11:05:50;22.63;;;11.57;;
84371;SDS011;74561;50.380;7.626;2024-03-07T11:08:16;22.92;;;11.57;;
84371;SDS011;74561;50.380;7.626;2024-03-07T11:10:51;21.10;;;12.05;;
84371;SDS011;74561;50.380;7.626;2024-03-07T11:13:18;20.70;;;11.35;;
84371;SDS011;74561;50.380;7.626;2024-03-07T11:15:48;20.42;;;10.77;;
84371;SDS011;74561;50.380;7.626;2024-03-07T11:21:51;20.52;;;11.02;;
84371;SDS011;74561;50.380;7.626;2024-03-07T11:32:03;17.27;;;10.32;;
84371;SDS011;74561;50.380;7.626;2024-03-07T11:34:29;19.85;;;10.80;;
84371;SDS011;74561;50.380;7.626;2024-03-07T11:36:55;18.80;;;10.98;;
84371;SDS011;74561;50.380;7.626;2024-03-07T11:39:40;18.27;;;11.38;;
84371;SDS011;74561;50.380;7.626;2024-03-07T11:42:29;19.50;;;10.52;;
84371;SDS011;74561;50.380;7.626;2024-03-07T11:52:16;16.05;;;10.45;;
84371;SDS011;74561;50.380;7.626;2024-03-07T11:55:09;17.08;;;10.05;;
84371;SDS011;74561;50.380;7.626;2024-03-07T11:57:34;17.50;;;10.40;;
84371;SDS011;74561;50.380;7.626;2024-03-07T12:00:00;16.42;;;10.30;;
84371;SDS011;74561;50.380;7.626;2024-03-07T12:02:26;16.98;;;10.40;;
84371;SDS011;74561;50.380;7.626;2024-03-07T12:04:52;14.63;;;8.95;;
84371;SDS011;74561;50.380;7.626;2024-03-07T12:09:52;14.98;;;8.65;;
84371;SDS011;74561;50.380;7.626;2024-03-07T12:12:21;14.73;;;9.52;;
84371;SDS011;74561;50.380;7.626;2024-03-07T12:14:53;14.60;;;8.85;;
84371;SDS011;74561;50.380;7.626;2024-03-07T12:17:19;14.93;;;9.68;;
84371;SDS011;74561;50.380;7.626;2024-03-07T12:19:46;15.20;;;9.00;;
84371;SDS011;74561;50.380;7.626;2024-03-07T12:22:11;14.15;;;8.27;;
84371;SDS011;74561;50.380;7.626;2024-03-07T12:24:41;15.45;;;9.10;;
84371;SDS011;74561;50.380;7.626;2024-03-07T12:37:36;15.30;;;9.18;;
84371;SDS011;74561;50.380;7.626;2024-03-07T12:40:10;14.85;;;8.55;;
84371;SDS011;74561;50.380;7.626;2024-03-07T12:50:28;16.15;;;9.48;;
84371;SDS011;74561;50.380;7.626;2024-03-07T12:52:53;17.10;;;9.70;;
84371;SDS011;74561;50.380;7.626;2024-03-07T12:55:18;19.80;;;11.10;;
84371;SDS011;74561;50.380;7.626;2024-03-07T12:57:44;16.52;;;9.88;;
84371;SDS011;74561;50.380;7.626;2024-03-07T13:00:10;18.85;;;10.07;;
84371;SDS011;74561;50.380;7.626;2024-03-07T13:02:44;16.95;;;9.70;;
84371;SDS011;74561;50.380;7.626;2024-03-07T13:05:13;15.15;;;9.25;;
84371;SDS011;74561;50.380;7.626;2024-03-07T13:07:45;15.70;;;9.23;;
84371;SDS011;74561;50.380;7.626;2024-03-07T13:10:12;17.70;;;9.45;;
84371;SDS011;74561;50.380;7.626;2024-03-07T13:12:40;14.13;;;8.13;;
84371;SDS011;74561;50.380;7.626;2024-03-07T13:15:08;17.23;;;8.75;;
84371;SDS011;74561;50.380;7.626;2024-03-07T13:17:35;14.13;;;8.82;;
84371;SDS011;74561;50.380;7.626;2024-03-07T13:20:01;16.95;;;8.95;;
84371;SDS011;74561;50.380;7.626;2024-03-07T13:22:26;16.60;;;9.48;;
84371;SDS011;74561;50.380;7.626;2024-03-07T13:24:52;15.18;;;9.40;;
84371;SDS011;74561;50.380;7.626;2024-03-07T13:27:18;16.92;;;9.10;;
84371;SDS011;74561;50.380;7.626;2024-03-07T13:29:53;16.40;;;9.18;;
84371;SDS011;74561;50.380;7.626;2024-03-07T13:32:18;17.23;;;8.98;;
84371;SDS011;74561;50.380;7.626;2024-03-07T13:34:49;17.50;;;8.90;;
84371;SDS011;74561;50.380;7.626;2024-03-07T13:37:14;14.63;;;8.23;;
84371;SDS011;74561;50.380;7.626;2024-03-07T13:39:44;16.63;;;9.35;;
84371;SDS011;74561;50.380;7.626;2024-03-07T13:42:21;15.75;;;9.05;;
84371;SDS011;74561;50.380;7.626;2024-03-07T13:44:46;15.68;;;9.57;;
84371;SDS011;74561;50.380;7.626;2024-03-07T13:47:12;17.42;;;8.82;;
84371;SDS011;74561;50.380;7.626;2024-03-07T13:49:37;14.70;;;8.10;;
84371;SDS011;74561;50.380;7.626;2024-03-07T13:52:03;16.90;;;8.65;;
84371;SDS011;74561;50.380;7.626;2024-03-07T14:22:32;16.33;;;8.75;;
84371;SDS011;74561;50.380;7.626;2024-03-07T14:31:26;15.05;;;7.80;;
84371;SDS011;74561;50.380;7.626;2024-03-07T14:40:20;18.75;;;9.63;;
84371;SDS011;74561;50.380;7.626;2024-03-07T18:05:47;18.83;;;10.38;;
84371;SDS011;74561;50.380;7.626;2024-03-07T19:07:52;21.52;;;9.73;;
84371;SDS011;74561;50.380;7.626;2024-03-07T19:10:24;17.33;;;9.95;;
84371;SDS011;74561;50.380;7.626;2024-03-07T19:12:54;20.27;;;10.23;;
84371;SDS011;74561;50.380;7.626;2024-03-07T19:15:23;20.52;;;10.63;;
84371;SDS011;74561;50.380;7.626;2024-03-07T19:17:48;18.35;;;9.38;;
84371;SDS011;74561;50.380;7.626;2024-03-07T19:20:17;23.98;;;10.98;;
84371;SDS011;74561;50.380;7.626;2024-03-07T19:22:52;22.30;;;11.30;;
84371;SDS011;74561;50.380;7.626;2024-03-07T19:25:17;19.65;;;10.32;;
84371;SDS011;74561;50.380;7.626;2024-03-07T19:27:49;18.77;;;9.88;;
84371;SDS011;74561;50.380;7.626;2024-03-07T19:30:15;19.50;;;10.90;;
84371;SDS011;74561;50.380;7.626;2024-03-07T19:32:42;20.63;;;10.23;;
84371;SDS011;74561;50.380;7.626;2024-03-07T19:35:08;20.38;;;10.88;;
84371;SDS011;74561;50.380;7.626;2024-03-07T19:37:43;20.92;;;10.60;;
84371;SDS011;74561;50.380;7.626;2024-03-07T19:40:15;20.80;;;10.70;;
84371;SDS011;74561;50.380;7.626;2024-03-07T19:42:44;19.33;;;10.65;;
84371;SDS011;74561;50.380;7.626;2024-03-07T19:47:39;19.33;;;9.90;;
84371;SDS011;74561;50.380;7.626;2024-03-07T19:50:08;21.38;;;11.13;;
84371;SDS011;74561;50.380;7.626;2024-03-07T19:52:35;20.17;;;10.95;;
84371;SDS011;74561;50.380;7.626;2024-03-07T19:55:01;19.73;;;10.95;;
84371;SDS011;74561;50.380;7.626;2024-03-07T19:57:30;20.52;;;11.93;;
84371;SDS011;74561;50.380;7.626;2024-03-07T19:59:59;21.75;;;11.30;;
84371;SDS011;74561;50.380;7.626;2024-03-07T20:02:32;20.80;;;12.18;;
84371;SDS011;74561;50.380;7.626;2024-03-07T20:04:58;20.15;;;11.52;;
84371;SDS011;74561;50.380;7.626;2024-03-07T20:07:25;19.92;;;11.27;;
84371;SDS011;74561;50.380;7.626;2024-03-07T20:09:54;22.27;;;11.95;;
84371;SDS011;74561;50.380;7.626;2024-03-07T20:14:49;21.42;;;11.65;;
84371;SDS011;74561;50.380;7.626;2024-03-07T20:19:43;22.25;;;12.23;;
84371;SDS011;74561;50.380;7.626;2024-03-07T20:22:09;23.17;;;12.33;;
84371;SDS011;74561;50.380;7.626;2024-03-07T20:24:35;19.77;;;11.65;;
84371;SDS011;74561;50.380;7.626;2024-03-07T20:27:11;19.90;;;10.98;;
84371;SDS011;74561;50.380;7.626;2024-03-07T20:29:37;23.50;;;11.18;;
84371;SDS011;74561;50.380;7.626;2024-03-07T20:32:03;21.35;;;11.40;;
84371;SDS011;74561;50.380;7.626;2024-03-07T20:34:30;20.50;;;11.57;;
84371;SDS011;74561;50.380;7.626;2024-03-07T20:36:56;20.70;;;11.80;;
84371;SDS011;74561;50.380;7.626;2024-03-07T20:39:21;24.53;;;12.53;;
84371;SDS011;74561;50.380;7.626;2024-03-07T20:41:51;20.88;;;11.70;;
84371;SDS011;74561;50.380;7.626;2024-03-07T20:44:17;21.48;;;11.25;;
84371;SDS011;74561;50.380;7.626;2024-03-07T20:46:45;21.23;;;11.35;;
84371;SDS011;74561;50.380;7.626;2024-03-07T20:49:10;22.48;;;12.70;;
84371;SDS011;74561;50.380;7.626;2024-03-07T20:51:35;22.57;;;11.90;;
84371;SDS011;74561;50.380;7.626;2024-03-07T20:54:02;21.92;;;12.02;;
84371;SDS011;74561;50.380;7.626;2024-03-07T20:56:28;24.50;;;12.15;;
84371;SDS011;74561;50.380;7.626;2024-03-07T20:58:53;21.00;;;11.87;;
84371;SDS011;74561;50.380;7.626;2024-03-07T21:01:18;22.13;;;12.53;;
84371;SDS011;74561;50.380;7.626;2024-03-07T21:03:45;21.88;;;11.73;;
84371;SDS011;74561;50.380;7.626;2024-03-07T21:06:10;18.20;;;10.13;;
84371;SDS011;74561;50.380;7.626;2024-03-07T21:08:36;23.33;;;11.57;;
84371;SDS011;74561;50.380;7.626;2024-03-07T21:11:02;23.65;;;12.10;;
84371;SDS011;74561;50.380;7.626;2024-03-07T21:13:30;21.63;;;11.30;;
84371;SDS011;74561;50.380;7.626;2024-03-07T21:15:56;21.75;;;12.73;;
84371;SDS011;74561;50.380;7.626;2024-03-07T21:18:21;22.73;;;12.00;;
84371;SDS011;74561;50.380;7.626;2024-03-07T21:20:48;22.88;;;12.77;;
84371;SDS011;74561;50.380;7.626;2024-03-07T21:23:13;22.00;;;12.07;;
84371;SDS011;74561;50.380;7.626;2024-03-07T21:25:41;19.65;;;10.98;;
84371;SDS011;74561;50.380;7.626;2024-03-07T21:28:07;21.47;;;12.23;;
84371;SDS011;74561;50.380;7.626;2024-03-07T21:30:32;23.87;;;12.63;;
84371;SDS011;74561;50.380;7.626;2024-03-07T21:32:57;24.47;;;12.03;;
84371;SDS011;74561;50.380;7.626;2024-03-07T21:37:58;23.00;;;11.75;;
84371;SDS011;74561;50.380;7.626;2024-03-07T21:40:26;19.38;;;10.88;;
84371;SDS011;74561;50.380;7.626;2024-03-07T21:42:52;24.15;;;12.50;;
84371;SDS011;74561;50.380;7.626;2024-03-07T21:45:18;20.77;;;11.90;;
84371;SDS011;74561;50.380;7.626;2024-03-07T21:47:44;19.42;;;11.25;;
84371;SDS011;74561;50.380;7.626;2024-03-07T21:52:38;22.17;;;11.60;;
84371;SDS011;74561;50.380;7.626;2024-03-07T21:55:04;21.33;;;12.23;;
84371;SDS011;74561;50.380;7.626;2024-03-07T21:57:32;19.17;;;10.68;;
84371;SDS011;74561;50.380;7.626;2024-03-07T22:00:00;21.83;;;11.73;;
84371;SDS011;74561;50.380;7.626;2024-03-07T22:02:25;23.50;;;11.30;;
84371;SDS011;74561;50.380;7.626;2024-03-07T22:46:05;19.98;;;10.63;;
84371;SDS011;74561;50.380;7.626;2024-03-07T22:53:42;22.90;;;11.52;;
84371;SDS011;74561;50.380;7.626;2024-03-07T22:59:20;21.60;;;11.20;;
84371;SDS011;74561;50.380;7.626;2024-03-07T23:01:46;23.80;;;11.65;;
84371;SDS011;74561;50.380;7.626;2024-03-07T23:06:48;20.52;;;10.15;;
84371;SDS011;74561;50.380;7.626;2024-03-07T23:09:17;23.00;;;11.15;;
84371;SDS011;74561;50.380;7.626;2024-03-07T23:11:44;20.42;;;11.02;;
84371;SDS011;74561;50.380;7.626;2024-03-07T23:14:09;23.27;;;11.80;;
84371;SDS011;74561;50.380;7.626;2024-03-07T23:16:36;21.90;;;11.25;;
84371;SDS011;74561;50.380;7.626;2024-03-07T23:19:02;21.83;;;10.57;;
84371;SDS011;74561;50.380;7.626;2024-03-07T23:21:28;20.60;;;10.65;;
84371;SDS011;74561;50.380;7.626;2024-03-07T23:29:05;22.77;;;11.02;;
84371;SDS011;74561;50.380;7.626;2024-03-07T23:31:42;19.63;;;10.40;;
84371;SDS011;74561;50.380;7.626;2024-03-07T23:34:14;19.33;;;10.52;;
84371;SDS011;74561;50.380;7.626;2024-03-07T23:36:41;22.80;;;10.50;;
84371;SDS011;74561;50.380;7.626;2024-03-07T23:44:20;20.15;;;10.30;;
84371;SDS011;74561;50.380;7.626;2024-03-07T23:46:53;20.02;;;10.55;;
